Terminal Aerodrome Forecast
Issued by NWS

Home | Current Version | Previous Version | Text Only | Print | Product List | Glossary On
Versions: 1 2 3 4 5 6 7 8 9 10 11 12 13 14 15 16 17 18 19 20 21 22 23 24 25 26 27 28 29 30 31 32 33
000
FTUS44 KFWD 210500
TAFFTW
TAF
KFTW 210520Z 2106/2206 14004KT P6SM BKN012 OVC030
     FM210800 16004KT P6SM OVC008
     FM211200 16004KT 3SM BR OVC005
     FM211600 17008KT P6SM OVC008
     FM211900 17011KT P6SM BKN015
     FM212100 16008KT P6SM BKN025=

USA.gov is the U.S. government's official web portal to all federal, state and local government web resources and services.